Time;durP1;ratioP1;P1;durP2;ratioP2;P2;SDS_P1;SDS_P2;PMS_P1;PMS_P2;Temp;Humidity;BMP_temperature;BMP_pressure;BME280_temperature;BME280_humidity;BME280_pressure;Samples;Min_cycle;Max_cycle;Signal;HPM_P1;HPM_P2
2023/10/13 00:10:59;;;;;;;11;5.8;;;;;;;15.11;86.16;;;;;
2023/10/13 00:22:08;;;;;;;11;5.8;;;;;;;15.21;86.44;;;;;
2023/10/13 00:31:56;;;;;;;11;5.8;;;;;;;15.23;85.68;;;;;
2023/10/13 00:41:57;;;;;;;9.1;5.3;;;;;;;15.03;85.87;;;;;
2023/10/13 00:52:56;;;;;;;9.1;5.3;;;;;;;14.84;85.97;;;;;
2023/10/13 01:02:56;;;;;;;9.1;5.3;;;;;;;14.63;86.75;;;;;
2023/10/13 01:13:56;;;;;;;10.3;5.5;;;;;;;14.56;87.08;;;;;
2023/10/13 01:25:05;;;;;;;10.3;5.5;;;;;;;14.6;86.97;;;;;
2023/10/13 01:34:57;;;;;;;10.3;5.5;;;;;;;14.63;86.88;;;;;
2023/10/13 01:45:05;;;;;;;11.7;5;;;;;;;14.6;87.25;;;;;
2023/10/13 01:55:57;;;;;;;11.7;5;;;;;;;14.55;87.72;;;;;
2023/10/13 02:06:56;;;;;;;11.7;5;;;;;;;14.44;87.3;;;;;
2023/10/13 02:17:11;;;;;;;8.5;5;;;;;;;14.27;86.87;;;;;
2023/10/13 02:27:02;;;;;;;8.5;5;;;;;;;14.07;86.59;;;;;
2023/10/13 02:38:06;;;;;;;8.5;5;;;;;;;13.84;86.49;;;;;
2023/10/13 02:48:09;;;;;;;9;5;;;;;;;13.6;86.52;;;;;
2023/10/13 02:57:56;;;;;;;9;5;;;;;;;13.36;86.7;;;;;
2023/10/13 03:08:56;;;;;;;9;5;;;;;;;13.1;87;;;;;
2023/10/13 03:18:56;;;;;;;6.3;3.2;;;;;;;13;88;;;;;
2023/10/13 03:30:00;;;;;;;6.3;3.2;;;;;;;13.05;88.11;;;;;
2023/10/13 03:39:59;;;;;;;6.3;3.2;;;;;;;12.97;88.42;;;;;
2023/10/13 03:51:03;;;;;;;5.9;3.1;;;;;;;13;88.43;;;;;
2023/10/13 04:00:56;;;;;;;5.9;3.1;;;;;;;13;89.32;;;;;
2023/10/13 04:12:21;;;;;;;;;;;;;;;;;;;;;
2023/10/13 04:21:58;;;;;;;;;;;;;;;;;;;;;
2023/10/13 04:34:02;;;;;;;;;;;;;;;;;;;;;
2023/10/13 04:42:57;;;;;;;;;;;;;;;;;;;;;
2023/10/13 04:54:00;;;;;;;10.5;4;;;;;;;13.81;90.32;;;;;
2023/10/13 05:04:21;;;;;;;10.5;4;;;;;;;14.03;90.1;;;;;
2023/10/13 06:28:56;;;;;;;10.7;6;;;;;;;14.95;88.71;;;;;
2023/10/13 06:39:25;;;;;;;10.7;6;;;;;;;15.09;88.84;;;;;
2023/10/13 06:49:56;;;;;;;10.5;5.9;;;;;;;15.26;88.81;;;;;
2023/10/13 07:01:01;;;;;;;10.5;5.9;;;;;;;15.5;89.07;;;;;
2023/10/13 07:12:00;;;;;;;10.9;5.4;;;;;;;15.82;88.68;;;;;
2023/10/13 07:23:02;;;;;;;10.9;5.4;;;;;;;16.3;88.4;;;;;
2023/10/13 07:32:59;;;;;;;10.9;5.4;;;;;;;16.76;88.31;;;;;
2023/10/13 07:43:59;;;;;;;13.7;6.6;;;;;;;17.39;86.11;;;;;
2023/10/13 07:53:57;;;;;;;13.7;6.6;;;;;;;17.92;82.65;;;;;
2023/10/13 08:04:05;;;;;;;13.7;6.6;;;;;;;18.4;79.28;;;;;
2023/10/13 08:15:12;;;;;;;10.2;5.3;;;;;;;18.71;78.76;;;;;
2023/10/13 08:27:33;;;;;;;10.2;5.3;;;;;;;19.38;77.95;;;;;
2023/10/13 08:36:27;;;;;;;10.2;5.3;;;;;;;19.59;75.58;;;;;
2023/10/13 08:45:58;;;;;;;10;4.6;;;;;;;19.51;74.16;;;;;
2023/10/13 08:56:57;;;;;;;10;4.6;;;;;;;19.23;73.63;;;;;
2023/10/13 09:08:08;;;;;;;10;4.6;;;;;;;19.85;73.52;;;;;
2023/10/13 09:18:12;;;;;;;10.4;5.4;;;;;;;20.07;72.97;;;;;
2023/10/13 09:28:57;;;;;;;10.4;5.4;;;;;;;20.16;70.82;;;;;
2023/10/13 09:40:24;;;;;;;10.4;5.4;;;;;;;20.47;72.16;;;;;
2023/10/13 09:50:57;;;;;;;8.9;5.1;;;;;;;20.64;68.31;;;;;
2023/10/13 10:01:57;;;;;;;8.9;5.1;;;;;;;20.87;68.71;;;;;
2023/10/13 10:11:57;;;;;;;10.9;5.9;;;;;;;21.17;68.04;;;;;
2023/10/13 10:21:57;;;;;;;10.9;5.9;;;;;;;21.3;68.52;;;;;
2023/10/13 10:32:59;;;;;;;10.9;5.9;;;;;;;21.21;68.47;;;;;
2023/10/13 10:44:02;;;;;;;10;5.6;;;;;;;21.57;66.91;;;;;
2023/10/13 10:53:57;;;;;;;10;5.6;;;;;;;21.86;66.97;;;;;
2023/10/13 11:04:57;;;;;;;10;5.6;;;;;;;22.36;65.8;;;;;
2023/10/13 11:14:58;;;;;;;13.1;6.3;;;;;;;22.63;63.26;;;;;
2023/10/13 11:24:59;;;;;;;13.1;6.3;;;;;;;22.86;60.94;;;;;
2023/10/13 11:35:57;;;;;;;13.1;6.3;;;;;;;22.72;60.06;;;;;
2023/10/13 11:47:07;;;;;;;7.3;3.5;;;;;;;22.6;59.77;;;;;
2023/10/13 11:57:59;;;;;;;7.3;3.5;;;;;;;22.89;62.1;;;;;
2023/10/13 12:08:03;;;;;;;7.3;3.5;;;;;;;22.79;61.58;;;;;
2023/10/13 12:17:57;;;;;;;7.3;4;;;;;;;22.8;62.84;;;;;
2023/10/13 12:27:57;;;;;;;7.3;4;;;;;;;22.66;59.54;;;;;
2023/10/13 12:49:04;;;;;;;13.4;4;;;;;;;22.63;61.16;;;;;
2023/10/13 12:59:57;;;;;;;13.4;4;;;;;;;22.92;60.37;;;;;
2023/10/13 13:10:57;;;;;;;13.4;4;;;;;;;23.05;63.24;;;;;
2023/10/13 13:20:57;;;;;;;7.1;3.6;;;;;;;22.97;61.64;;;;;
2023/10/13 13:30:57;;;;;;;7.1;3.6;;;;;;;23.03;62.33;;;;;
2023/10/13 13:40:57;;;;;;;7.1;3.6;;;;;;;23.02;62.5;;;;;
2023/10/13 13:51:04;;;;;;;6.2;3.7;;;;;;;22.82;63.11;;;;;
2023/10/13 14:00:58;;;;;;;6.2;3.7;;;;;;;22.87;62.73;;;;;
2023/10/13 14:13:06;;;;;;;8.2;3.7;;;;;;;22.92;62.43;;;;;
2023/10/13 14:21:57;;;;;;;8.2;3.7;;;;;;;22.85;63.87;;;;;
2023/10/13 14:32:58;;;;;;;8.2;3.7;;;;;;;22.64;63.8;;;;;
2023/10/13 14:42:57;;;;;;;6.7;3;;;;;;;22.75;65.92;;;;;
2023/10/13 14:53:59;;;;;;;6.7;3;;;;;;;22.4;66.55;;;;;
2023/10/13 15:03:58;;;;;;;6.7;3;;;;;;;21.84;67.37;;;;;
2023/10/13 15:13:57;;;;;;;6.8;3.6;;;;;;;21.24;69.44;;;;;
2023/10/13 15:25:08;;;;;;;6.8;3.6;;;;;;;20.89;70.48;;;;;
2023/10/13 15:34:57;;;;;;;6.8;3.6;;;;;;;20.51;72.1;;;;;
2023/10/13 15:44:57;;;;;;;9.5;4.1;;;;;;;20.07;73.32;;;;;
2023/10/13 15:55:57;;;;;;;9.5;4.1;;;;;;;19.79;74.06;;;;;
2023/10/13 16:06:57;;;;;;;9.5;4.1;;;;;;;19.44;74.75;;;;;
2023/10/13 16:16:57;;;;;;;10;5.4;;;;;;;19.02;77;;;;;
2023/10/13 16:27:57;;;;;;;10;5.4;;;;;;;18.85;77.24;;;;;
2023/10/13 16:38:57;;;;;;;10;5.4;;;;;;;18.76;77.13;;;;;
2023/10/13 16:48:57;;;;;;;9.8;5.6;;;;;;;18.7;77.06;;;;;
2023/10/13 16:58:57;;;;;;;9.8;5.6;;;;;;;18.62;77.17;;;;;
2023/10/13 17:08:57;;;;;;;9.8;5.6;;;;;;;18.54;77.49;;;;;
2023/10/13 17:19:57;;;;;;;11.1;5.5;;;;;;;18.54;76.72;;;;;
2023/10/13 17:29:57;;;;;;;11.1;5.5;;;;;;;18.34;77.57;;;;;
2023/10/13 17:40:59;;;;;;;11.1;5.5;;;;;;;18.2;77.39;;;;;
2023/10/13 17:50:57;;;;;;;10.4;6;;;;;;;18.12;77.53;;;;;
2023/10/13 18:01:57;;;;;;;10.4;6;;;;;;;18.02;77.1;;;;;
2023/10/13 18:11:57;;;;;;;13.5;5;;;;;;;17.9;77.4;;;;;
2023/10/13 18:22:59;;;;;;;13.5;5;;;;;;;17.85;77.3;;;;;
2023/10/13 18:32:57;;;;;;;13.5;5;;;;;;;17.96;75.95;;;;;
2023/10/13 18:42:58;;;;;;;11.5;5.5;;;;;;;17.97;75.83;;;;;
2023/10/13 18:52:57;;;;;;;11.5;5.5;;;;;;;18;75.2;;;;;
2023/10/13 19:03:59;;;;;;;11.5;5.5;;;;;;;18.01;74.88;;;;;
2023/10/13 19:14:57;;;;;;;9.7;5.5;;;;;;;18.09;74.28;;;;;
2023/10/13 19:25:57;;;;;;;9.7;5.5;;;;;;;18.02;74;;;;;
2023/10/13 19:35:57;;;;;;;9.7;5.5;;;;;;;17.93;74.32;;;;;
2023/10/13 19:47:00;;;;;;;8.9;5.1;;;;;;;17.75;74.49;;;;;
2023/10/13 19:56:57;;;;;;;8.9;5.1;;;;;;;17.62;74.93;;;;;
2023/10/13 20:06:57;;;;;;;8.9;5.1;;;;;;;17.49;75.13;;;;;
2023/10/13 20:17:57;;;;;;;12.7;6;;;;;;;17.39;75.46;;;;;
2023/10/13 20:27:57;;;;;;;12.7;6;;;;;;;17.47;74.95;;;;;
2023/10/13 20:38:57;;;;;;;12.7;6;;;;;;;17.51;74.59;;;;;
2023/10/13 20:49:57;;;;;;;10.8;5.4;;;;;;;17.5;74.64;;;;;
2023/10/13 20:59:58;;;;;;;10.8;5.4;;;;;;;17.44;74.7;;;;;
2023/10/13 21:10:57;;;;;;;10.8;5.4;;;;;;;17.23;75.94;;;;;
2023/10/13 21:21:57;;;;;;;10.3;5.7;;;;;;;16.86;76.16;;;;;
2023/10/13 21:32:57;;;;;;;10.3;5.7;;;;;;;16.39;77.21;;;;;
2023/10/13 21:42:57;;;;;;;10.5;5.6;;;;;;;16.09;77.88;;;;;
2023/10/13 21:53:57;;;;;;;10.5;5.6;;;;;;;15.7;78.41;;;;;
2023/10/13 22:04:58;;;;;;;10.5;5.6;;;;;;;15.5;79.87;;;;;
2023/10/13 22:15:00;;;;;;;11;5.5;;;;;;;15.41;80.07;;;;;
2023/10/13 22:25:59;;;;;;;11;5.5;;;;;;;15.18;81.01;;;;;
2023/10/13 22:35:58;;;;;;;11;5.5;;;;;;;14.93;81.46;;;;;
2023/10/13 22:45:58;;;;;;;11.4;6.2;;;;;;;14.86;82.7;;;;;
2023/10/13 22:56:57;;;;;;;11.4;6.2;;;;;;;15.08;81.47;;;;;
2023/10/13 23:08:00;;;;;;;11.4;6.2;;;;;;;15;81.56;;;;;
2023/10/13 23:18:57;;;;;;;9.9;5.6;;;;;;;14.84;81.93;;;;;
2023/10/13 23:28:57;;;;;;;9.9;5.6;;;;;;;14.69;82.19;;;;;
2023/10/13 23:39:59;;;;;;;9.9;5.6;;;;;;;14.42;82.35;;;;;
2023/10/13 23:49:58;;;;;;;9.6;5.3;;;;;;;14.36;82.85;;;;;
2023/10/13 23:59:57;;;;;;;9.6;5.3;;;;;;;14.35;82.98;;;;;
